Terminal Aerodrome Forecast
Issued by NWS

Current Version | Previous Version | Text Only | Print | Product List | Glossary On
Versions: 1 2 3 4 5 6 7 8 9 10 11 12 13 14 15 16 17 18 19
000
FTAK31 PAFA 262339
TAFAQT
TAF
PAQT 262339Z 2700/2724 VRB03KT P6SM SCT120 OVC250
     FM270600 04005KT 2SM BR OVC008
     FM271000 VRB03KT 1/4SM FG OVC004
     FM271700 VRB03KT 2SM BR SCT004 BKN007
     FM272100 16005KT P6SM BKN250=

USA.gov is the U.S. government's official web portal to all federal, state and local government web resources and services.